sensor_id;sensor_type;location;lat;lon;timestamp;pressure;altitude;pressure_sealevel;temperature;humidity
70407;BME280;57821;52.202;0.154;2023-04-04T00:01:15;102992.59;;;2.34;68.38
70407;BME280;57821;52.202;0.154;2023-04-04T00:04:01;102997.69;;;2.34;69.05
70407;BME280;57821;52.202;0.154;2023-04-04T00:06:48;102991.63;;;2.32;69.00
70407;BME280;57821;52.202;0.154;2023-04-04T00:09:35;102989.63;;;2.28;68.82
70407;BME280;57821;52.202;0.154;2023-04-04T00:12:22;102992.00;;;2.25;69.24
70407;BME280;57821;52.202;0.154;2023-04-04T00:15:12;102991.00;;;2.23;69.16
70407;BME280;57821;52.202;0.154;2023-04-04T00:17:59;102994.16;;;2.19;69.11
70407;BME280;57821;52.202;0.154;2023-04-04T00:20:46;102990.59;;;2.17;69.51
70407;BME280;57821;52.202;0.154;2023-04-04T00:23:32;102979.41;;;2.15;69.37
70407;BME280;57821;52.202;0.154;2023-04-04T00:26:19;102989.41;;;2.12;69.88
70407;BME280;57821;52.202;0.154;2023-04-04T00:29:07;102986.66;;;2.09;69.89
70407;BME280;57821;52.202;0.154;2023-04-04T00:31:54;102989.13;;;2.08;70.21
70407;BME280;57821;52.202;0.154;2023-04-04T00:34:41;102995.78;;;2.05;70.01
70407;BME280;57821;52.202;0.154;2023-04-04T00:37:27;102996.28;;;2.00;70.25
70407;BME280;57821;52.202;0.154;2023-04-04T00:40:14;102993.53;;;1.97;70.29
70407;BME280;57821;52.202;0.154;2023-04-04T00:43:01;102989.84;;;1.93;70.44
70407;BME280;57821;52.202;0.154;2023-04-04T00:45:50;102982.88;;;1.91;71.13
70407;BME280;57821;52.202;0.154;2023-04-04T00:48:38;102989.69;;;1.90;71.21
70407;BME280;57821;52.202;0.154;2023-04-04T00:51:26;102974.09;;;1.87;71.13
70407;BME280;57821;52.202;0.154;2023-04-04T00:54:13;102981.69;;;1.86;71.11
70407;BME280;57821;52.202;0.154;2023-04-04T00:57:00;102974.59;;;1.82;72.08
70407;BME280;57821;52.202;0.154;2023-04-04T00:59:48;102960.81;;;1.80;71.90
70407;BME280;57821;52.202;0.154;2023-04-04T01:02:34;102967.69;;;1.81;71.79
70407;BME280;57821;52.202;0.154;2023-04-04T01:05:21;102962.56;;;1.81;72.27
70407;BME280;57821;52.202;0.154;2023-04-04T01:08:08;102954.81;;;1.79;72.39
70407;BME280;57821;52.202;0.154;2023-04-04T01:10:56;102956.25;;;1.76;72.84
70407;BME280;57821;52.202;0.154;2023-04-04T01:13:43;102963.75;;;1.73;72.63
70407;BME280;57821;52.202;0.154;2023-04-04T01:16:34;102960.19;;;1.71;72.92
70407;BME280;57821;52.202;0.154;2023-04-04T01:19:31;102958.88;;;1.64;73.39
70407;BME280;57821;52.202;0.154;2023-04-04T01:22:22;102968.34;;;1.65;72.74
70407;BME280;57821;52.202;0.154;2023-04-04T01:25:10;102966.25;;;1.59;72.67
70407;BME280;57821;52.202;0.154;2023-04-04T01:28:00;102957.50;;;1.56;73.27
70407;BME280;57821;52.202;0.154;2023-04-04T01:30:47;102962.41;;;1.53;73.12
70407;BME280;57821;52.202;0.154;2023-04-04T01:33:51;102960.53;;;1.50;74.21
70407;BME280;57821;52.202;0.154;2023-04-04T01:36:46;102965.66;;;1.50;74.23
70407;BME280;57821;52.202;0.154;2023-04-04T01:39:56;102951.56;;;1.44;73.94
70407;BME280;57821;52.202;0.154;2023-04-04T01:42:46;102962.69;;;1.44;73.39
70407;BME280;57821;52.202;0.154;2023-04-04T01:45:33;102972.78;;;1.43;73.80
70407;BME280;57821;52.202;0.154;2023-04-04T01:48:26;102971.72;;;1.39;73.56
70407;BME280;57821;52.202;0.154;2023-04-04T01:51:16;102975.03;;;1.38;73.48
70407;BME280;57821;52.202;0.154;2023-04-04T01:54:03;102967.16;;;1.35;73.02
70407;BME280;57821;52.202;0.154;2023-04-04T01:56:50;102960.94;;;1.32;74.20
70407;BME280;57821;52.202;0.154;2023-04-04T01:59:37;102967.72;;;1.31;74.27
70407;BME280;57821;52.202;0.154;2023-04-04T02:02:24;102962.41;;;1.28;74.74
70407;BME280;57821;52.202;0.154;2023-04-04T02:05:11;102963.97;;;1.26;74.31
70407;BME280;57821;52.202;0.154;2023-04-04T02:07:58;102970.63;;;1.24;74.22
70407;BME280;57821;52.202;0.154;2023-04-04T02:10:59;102963.56;;;1.20;74.53
70407;BME280;57821;52.202;0.154;2023-04-04T02:13:48;102959.09;;;1.17;74.82
70407;BME280;57821;52.202;0.154;2023-04-04T02:16:37;102962.53;;;1.18;75.18
70407;BME280;57821;52.202;0.154;2023-04-04T02:19:24;102964.22;;;1.17;75.42
70407;BME280;57821;52.202;0.154;2023-04-04T02:22:11;102958.13;;;1.15;75.20
70407;BME280;57821;52.202;0.154;2023-04-04T02:24:58;102952.91;;;1.14;75.53
70407;BME280;57821;52.202;0.154;2023-04-04T02:27:45;102961.16;;;1.10;76.01
70407;BME280;57821;52.202;0.154;2023-04-04T02:30:32;102959.25;;;1.07;75.21
70407;BME280;57821;52.202;0.154;2023-04-04T02:33:21;102955.63;;;1.04;75.44
70407;BME280;57821;52.202;0.154;2023-04-04T02:36:09;102956.97;;;0.99;75.08
70407;BME280;57821;52.202;0.154;2023-04-04T02:38:58;102963.63;;;0.97;74.82
70407;BME280;57821;52.202;0.154;2023-04-04T02:41:45;102952.09;;;0.90;75.20
70407;BME280;57821;52.202;0.154;2023-04-04T02:44:32;102955.53;;;0.91;75.76
70407;BME280;57821;52.202;0.154;2023-04-04T02:47:19;102946.66;;;0.86;75.09
70407;BME280;57821;52.202;0.154;2023-04-04T02:50:07;102951.53;;;0.82;75.46
70407;BME280;57821;52.202;0.154;2023-04-04T02:52:59;102947.00;;;0.78;75.99
70407;BME280;57821;52.202;0.154;2023-04-04T02:55:48;102946.88;;;0.77;75.87
70407;BME280;57821;52.202;0.154;2023-04-04T02:58:34;102951.91;;;0.75;75.80
70407;BME280;57821;52.202;0.154;2023-04-04T03:01:21;102939.69;;;0.71;75.78
70407;BME280;57821;52.202;0.154;2023-04-04T03:04:08;102942.16;;;0.70;76.14
70407;BME280;57821;52.202;0.154;2023-04-04T03:06:55;102947.91;;;0.67;76.09
70407;BME280;57821;52.202;0.154;2023-04-04T03:09:42;102947.69;;;0.64;76.04
70407;BME280;57821;52.202;0.154;2023-04-04T03:12:29;102949.25;;;0.62;76.39
70407;BME280;57821;52.202;0.154;2023-04-04T03:15:17;102950.16;;;0.63;76.77
70407;BME280;57821;52.202;0.154;2023-04-04T03:18:04;102952.69;;;0.63;77.06
70407;BME280;57821;52.202;0.154;2023-04-04T03:20:53;102956.91;;;0.62;77.01
70407;BME280;57821;52.202;0.154;2023-04-04T03:23:40;102947.03;;;0.55;76.99
70407;BME280;57821;52.202;0.154;2023-04-04T03:26:27;102947.94;;;0.56;77.03
70407;BME280;57821;52.202;0.154;2023-04-04T03:29:14;102952.72;;;0.51;77.41
70407;BME280;57821;52.202;0.154;2023-04-04T03:32:02;102947.50;;;0.50;76.33
70407;BME280;57821;52.202;0.154;2023-04-04T03:34:49;102946.47;;;0.48;77.02
70407;BME280;57821;52.202;0.154;2023-04-04T03:37:35;102948.94;;;0.46;77.08
70407;BME280;57821;52.202;0.154;2023-04-04T03:40:22;102942.84;;;0.44;76.90
70407;BME280;57821;52.202;0.154;2023-04-04T03:43:09;102954.72;;;0.44;77.30
70407;BME280;57821;52.202;0.154;2023-04-04T03:46:00;102945.06;;;0.39;77.55
70407;BME280;57821;52.202;0.154;2023-04-04T03:48:47;102943.16;;;0.37;76.77
70407;BME280;57821;52.202;0.154;2023-04-04T03:51:35;102935.41;;;0.35;77.22
70407;BME280;57821;52.202;0.154;2023-04-04T03:54:23;102938.63;;;0.33;76.77
70407;BME280;57821;52.202;0.154;2023-04-04T03:57:09;102935.06;;;0.31;77.56
70407;BME280;57821;52.202;0.154;2023-04-04T03:59:57;102934.19;;;0.30;77.73
70407;BME280;57821;52.202;0.154;2023-04-04T04:02:44;102934.31;;;0.32;77.45
70407;BME280;57821;52.202;0.154;2023-04-04T04:05:31;102927.41;;;0.31;77.51
70407;BME280;57821;52.202;0.154;2023-04-04T04:08:17;102932.63;;;0.32;77.67
70407;BME280;57821;52.202;0.154;2023-04-04T04:11:05;102924.88;;;0.31;77.34
70407;BME280;57821;52.202;0.154;2023-04-04T04:13:52;102928.19;;;0.30;77.26
70407;BME280;57821;52.202;0.154;2023-04-04T04:16:39;102925.31;;;0.25;78.08
70407;BME280;57821;52.202;0.154;2023-04-04T04:19:27;102931.19;;;0.24;77.75
70407;BME280;57821;52.202;0.154;2023-04-04T04:22:15;102929.06;;;0.19;78.46
70407;BME280;57821;52.202;0.154;2023-04-04T04:25:03;102935.97;;;0.20;78.88
70407;BME280;57821;52.202;0.154;2023-04-04T04:27:54;102941.06;;;0.20;78.85
70407;BME280;57821;52.202;0.154;2023-04-04T04:30:41;102947.72;;;0.18;78.85
70407;BME280;57821;52.202;0.154;2023-04-04T04:33:29;102938.84;;;0.13;78.24
70407;BME280;57821;52.202;0.154;2023-04-04T04:36:19;102937.09;;;0.12;78.41
70407;BME280;57821;52.202;0.154;2023-04-04T04:39:17;102934.41;;;0.10;78.53
70407;BME280;57821;52.202;0.154;2023-04-04T04:42:18;102934.19;;;0.07;78.93
70407;BME280;57821;52.202;0.154;2023-04-04T04:45:10;102939.97;;;0.05;78.77
70407;BME280;57821;52.202;0.154;2023-04-04T04:48:01;102936.63;;;0.06;78.93
70407;BME280;57821;52.202;0.154;2023-04-04T04:50:50;102939.97;;;0.05;78.92
70407;BME280;57821;52.202;0.154;2023-04-04T04:53:48;102933.09;;;0.04;78.90
70407;BME280;57821;52.202;0.154;2023-04-04T04:56:35;102939.72;;;0.02;79.16
70407;BME280;57821;52.202;0.154;2023-04-04T04:59:27;102942.06;;;-0.02;78.94
70407;BME280;57821;52.202;0.154;2023-04-04T05:02:14;102941.16;;;-0.02;79.92
70407;BME280;57821;52.202;0.154;2023-04-04T05:05:05;102938.50;;;-0.04;79.22
70407;BME280;57821;52.202;0.154;2023-04-04T05:07:53;102942.38;;;-0.09;78.99
70407;BME280;57821;52.202;0.154;2023-04-04T05:10:40;102944.81;;;-0.10;79.56
70407;BME280;57821;52.202;0.154;2023-04-04T05:13:27;102947.22;;;-0.12;79.83
70407;BME280;57821;52.202;0.154;2023-04-04T05:16:15;102936.81;;;-0.15;79.37
70407;BME280;57821;52.202;0.154;2023-04-04T05:19:05;102938.72;;;-0.12;79.56
70407;BME280;57821;52.202;0.154;2023-04-04T05:21:58;102942.03;;;-0.13;79.99
70407;BME280;57821;52.202;0.154;2023-04-04T05:24:59;102935.81;;;-0.17;79.46
70407;BME280;57821;52.202;0.154;2023-04-04T05:27:46;102942.56;;;-0.17;79.39
70407;BME280;57821;52.202;0.154;2023-04-04T05:30:37;102945.25;;;-0.16;80.04
70407;BME280;57821;52.202;0.154;2023-04-04T05:33:32;102940.91;;;-0.17;80.11
70407;BME280;57821;52.202;0.154;2023-04-04T05:36:26;102947.03;;;-0.15;80.14
70407;BME280;57821;52.202;0.154;2023-04-04T05:39:18;102947.78;;;-0.16;80.32
70407;BME280;57821;52.202;0.154;2023-04-04T05:42:26;102945.38;;;-0.14;80.22
70407;BME280;57821;52.202;0.154;2023-04-04T05:45:16;102947.03;;;-0.15;80.42
70407;BME280;57821;52.202;0.154;2023-04-04T05:48:04;102943.69;;;-0.14;79.43
70407;BME280;57821;52.202;0.154;2023-04-04T05:50:57;102948.81;;;-0.14;80.12
70407;BME280;57821;52.202;0.154;2023-04-04T05:53:58;102957.34;;;-0.13;80.39
70407;BME280;57821;52.202;0.154;2023-04-04T05:56:50;102957.44;;;-0.12;80.22
70407;BME280;57821;52.202;0.154;2023-04-04T05:59:54;102954.13;;;-0.11;79.99
70407;BME280;57821;52.202;0.154;2023-04-04T06:02:41;102955.78;;;-0.11;80.15
70407;BME280;57821;52.202;0.154;2023-04-04T06:05:34;102964.56;;;-0.08;80.52
70407;BME280;57821;52.202;0.154;2023-04-04T06:08:21;102958.91;;;-0.04;80.44
70407;BME280;57821;52.202;0.154;2023-04-04T06:11:08;102959.03;;;-0.02;80.94
70407;BME280;57821;52.202;0.154;2023-04-04T06:13:55;102965.34;;;0.03;79.80
70407;BME280;57821;52.202;0.154;2023-04-04T06:16:43;102963.91;;;0.07;80.37
70407;BME280;57821;52.202;0.154;2023-04-04T06:19:30;102964.13;;;0.10;80.09
70407;BME280;57821;52.202;0.154;2023-04-04T06:22:17;102961.91;;;0.14;80.85
70407;BME280;57821;52.202;0.154;2023-04-04T06:25:08;102959.69;;;0.19;80.96
70407;BME280;57821;52.202;0.154;2023-04-04T06:27:56;102965.94;;;0.22;81.21
70407;BME280;57821;52.202;0.154;2023-04-04T06:30:43;102964.72;;;0.29;80.99
70407;BME280;57821;52.202;0.154;2023-04-04T06:33:31;102959.94;;;0.33;81.38
70407;BME280;57821;52.202;0.154;2023-04-04T06:36:19;102963.59;;;0.37;81.17
70407;BME280;57821;52.202;0.154;2023-04-04T06:39:07;102971.94;;;0.46;80.97
70407;BME280;57821;52.202;0.154;2023-04-04T06:41:54;102968.81;;;0.50;81.30
70407;BME280;57821;52.202;0.154;2023-04-04T06:44:45;102971.03;;;0.57;81.31
70407;BME280;57821;52.202;0.154;2023-04-04T06:47:32;102975.00;;;0.65;81.63
70407;BME280;57821;52.202;0.154;2023-04-04T06:50:21;102971.22;;;0.72;81.35
70407;BME280;57821;52.202;0.154;2023-04-04T06:53:08;102977.66;;;0.78;81.53
70407;BME280;57821;52.202;0.154;2023-04-04T06:55:55;102972.97;;;0.85;81.03
70407;BME280;57821;52.202;0.154;2023-04-04T06:58:41;102974.50;;;0.94;81.39
70407;BME280;57821;52.202;0.154;2023-04-04T07:01:28;102972.50;;;1.02;81.53
70407;BME280;57821;52.202;0.154;2023-04-04T07:04:18;102971.38;;;1.10;81.33
70407;BME280;57821;52.202;0.154;2023-04-04T07:07:04;102967.66;;;1.18;82.23
70407;BME280;57821;52.202;0.154;2023-04-04T07:09:51;102965.06;;;1.30;82.17
70407;BME280;57821;52.202;0.154;2023-04-04T07:12:38;102959.72;;;1.38;82.10
70407;BME280;57821;52.202;0.154;2023-04-04T07:15:25;102961.31;;;1.49;82.54
70407;BME280;57821;52.202;0.154;2023-04-04T07:18:12;102957.03;;;1.61;82.26
70407;BME280;57821;52.202;0.154;2023-04-04T07:20:59;102949.97;;;1.71;82.33
70407;BME280;57821;52.202;0.154;2023-04-04T07:23:46;102951.66;;;1.83;82.17
70407;BME280;57821;52.202;0.154;2023-04-04T07:26:32;102947.38;;;1.95;82.26
70407;BME280;57821;52.202;0.154;2023-04-04T07:29:19;102940.38;;;2.06;81.77
70407;BME280;57821;52.202;0.154;2023-04-04T07:32:06;102940.50;;;2.21;81.96
70407;BME280;57821;52.202;0.154;2023-04-04T07:34:53;102946.59;;;2.36;82.19
70407;BME280;57821;52.202;0.154;2023-04-04T07:37:40;102947.50;;;2.50;82.16
70407;BME280;57821;52.202;0.154;2023-04-04T07:40:27;102943.44;;;2.66;81.47
70407;BME280;57821;52.202;0.154;2023-04-04T07:43:14;102948.81;;;2.84;81.51
70407;BME280;57821;52.202;0.154;2023-04-04T07:46:00;102945.53;;;3.00;81.84
70407;BME280;57821;52.202;0.154;2023-04-04T07:48:47;102944.88;;;3.17;82.20
70407;BME280;57821;52.202;0.154;2023-04-04T07:51:34;102941.84;;;3.37;81.12
70407;BME280;57821;52.202;0.154;2023-04-04T07:54:21;102939.41;;;3.53;81.61
70407;BME280;57821;52.202;0.154;2023-04-04T07:57:08;102942.44;;;3.76;81.00
70407;BME280;57821;52.202;0.154;2023-04-04T07:59:55;102941.97;;;3.97;81.16
70407;BME280;57821;52.202;0.154;2023-04-04T08:02:42;102944.81;;;4.17;79.91
70407;BME280;57821;52.202;0.154;2023-04-04T08:05:29;102937.34;;;4.36;80.39
70407;BME280;57821;52.202;0.154;2023-04-04T08:08:16;102933.41;;;4.57;79.48
70407;BME280;57821;52.202;0.154;2023-04-04T08:11:03;102945.72;;;4.79;78.98
70407;BME280;57821;52.202;0.154;2023-04-04T08:13:50;102946.81;;;4.99;79.35
70407;BME280;57821;52.202;0.154;2023-04-04T08:16:37;102942.78;;;5.20;77.60
70407;BME280;57821;52.202;0.154;2023-04-04T08:19:24;102930.19;;;5.41;77.53
70407;BME280;57821;52.202;0.154;2023-04-04T08:22:11;102928.94;;;5.66;78.10
70407;BME280;57821;52.202;0.154;2023-04-04T08:24:58;102923.09;;;5.87;76.65
70407;BME280;57821;52.202;0.154;2023-04-04T08:27:45;102932.06;;;6.11;75.45
70407;BME280;57821;52.202;0.154;2023-04-04T08:30:31;102925.22;;;6.29;74.84
70407;BME280;57821;52.202;0.154;2023-04-04T08:33:22;102931.53;;;6.53;74.43
70407;BME280;57821;52.202;0.154;2023-04-04T08:36:17;102934.28;;;6.76;73.34
70407;BME280;57821;52.202;0.154;2023-04-04T08:39:04;102931.63;;;6.92;73.04
70407;BME280;57821;52.202;0.154;2023-04-04T08:42:03;102932.59;;;7.13;71.23
70407;BME280;57821;52.202;0.154;2023-04-04T08:44:52;102919.50;;;7.28;70.51
70407;BME280;57821;52.202;0.154;2023-04-04T08:47:40;102925.50;;;7.48;69.99
70407;BME280;57821;52.202;0.154;2023-04-04T08:50:28;102915.78;;;7.61;68.70
70407;BME280;57821;52.202;0.154;2023-04-04T08:53:16;102912.22;;;7.78;68.21
70407;BME280;57821;52.202;0.154;2023-04-04T08:56:03;102917.13;;;7.93;67.61
70407;BME280;57821;52.202;0.154;2023-04-04T08:58:50;102910.81;;;8.07;66.77
70407;BME280;57821;52.202;0.154;2023-04-04T09:01:37;102910.63;;;8.23;65.97
70407;BME280;57821;52.202;0.154;2023-04-04T09:04:24;102913.06;;;8.41;65.35
70407;BME280;57821;52.202;0.154;2023-04-04T09:07:12;102910.91;;;8.52;64.55
70407;BME280;57821;52.202;0.154;2023-04-04T09:10:00;102913.38;;;8.71;64.38
70407;BME280;57821;52.202;0.154;2023-04-04T09:12:47;102924.28;;;8.86;64.20
70407;BME280;57821;52.202;0.154;2023-04-04T09:15:35;102918.91;;;9.04;63.59
70407;BME280;57821;52.202;0.154;2023-04-04T09:18:23;102917.16;;;9.27;63.39
70407;BME280;57821;52.202;0.154;2023-04-04T09:21:11;102924.38;;;9.59;63.83
70407;BME280;57821;52.202;0.154;2023-04-04T09:23:59;102931.03;;;10.03;63.90
70407;BME280;57821;52.202;0.154;2023-04-04T09:26:52;102939.00;;;10.61;61.21
70407;BME280;57821;52.202;0.154;2023-04-04T09:29:40;102933.59;;;11.12;60.30
70407;BME280;57821;52.202;0.154;2023-04-04T09:32:27;102927.97;;;11.60;58.89
70407;BME280;57821;52.202;0.154;2023-04-04T09:35:14;102933.44;;;12.02;56.91
70407;BME280;57821;52.202;0.154;2023-04-04T09:38:01;102931.03;;;12.47;56.58
70407;BME280;57821;52.202;0.154;2023-04-04T09:40:48;102930.47;;;13.00;55.60
70407;BME280;57821;52.202;0.154;2023-04-04T09:43:35;102923.56;;;13.43;53.73
70407;BME280;57821;52.202;0.154;2023-04-04T09:46:22;102918.25;;;13.85;52.78
70407;BME280;57821;52.202;0.154;2023-04-04T09:49:19;102921.63;;;14.32;50.54
70407;BME280;57821;52.202;0.154;2023-04-04T09:52:17;102914.13;;;14.53;48.57
70407;BME280;57821;52.202;0.154;2023-04-04T09:55:04;102911.69;;;14.65;49.04
70407;BME280;57821;52.202;0.154;2023-04-04T09:57:51;102906.75;;;14.88;48.58
70407;BME280;57821;52.202;0.154;2023-04-04T10:00:45;102884.44;;;15.16;47.42
70407;BME280;57821;52.202;0.154;2023-04-04T10:03:32;102894.56;;;15.64;46.92
70407;BME280;57821;52.202;0.154;2023-04-04T10:06:20;102892.16;;;15.91;45.70
70407;BME280;57821;52.202;0.154;2023-04-04T10:09:07;102888.91;;;16.21;45.04
70407;BME280;57821;52.202;0.154;2023-04-04T10:12:07;102884.69;;;16.46;43.94
70407;BME280;57821;52.202;0.154;2023-04-04T10:15:00;102890.06;;;16.67;42.52
70407;BME280;57821;52.202;0.154;2023-04-04T10:17:48;102870.91;;;16.74;42.31
70407;BME280;57821;52.202;0.154;2023-04-04T10:20:39;102871.84;;;16.96;42.14
70407;BME280;57821;52.202;0.154;2023-04-04T10:23:27;102866.63;;;17.07;41.45
70407;BME280;57821;52.202;0.154;2023-04-04T10:26:14;102860.53;;;17.06;40.61
70407;BME280;57821;52.202;0.154;2023-04-04T10:29:01;102854.44;;;17.06;41.13
70407;BME280;57821;52.202;0.154;2023-04-04T10:31:52;102850.06;;;17.06;39.95
70407;BME280;57821;52.202;0.154;2023-04-04T10:34:59;102860.59;;;17.23;39.56
70407;BME280;57821;52.202;0.154;2023-04-04T10:37:53;102857.94;;;17.31;40.04
70407;BME280;57821;52.202;0.154;2023-04-04T10:40:45;102849.25;;;17.50;39.08
70407;BME280;57821;52.202;0.154;2023-04-04T10:43:39;102845.78;;;17.63;39.37
70407;BME280;57821;52.202;0.154;2023-04-04T10:46:28;102842.28;;;17.67;38.22
70407;BME280;57821;52.202;0.154;2023-04-04T10:49:15;102851.03;;;17.78;38.07
70407;BME280;57821;52.202;0.154;2023-04-04T10:52:02;102846.66;;;17.91;36.88
70407;BME280;57821;52.202;0.154;2023-04-04T10:54:54;102848.38;;;17.89;36.62
70407;BME280;57821;52.202;0.154;2023-04-04T10:57:45;102838.78;;;17.80;37.45
70407;BME280;57821;52.202;0.154;2023-04-04T11:00:48;102837.03;;;17.82;36.67
70407;BME280;57821;52.202;0.154;2023-04-04T11:09:55;102830.94;;;17.63;36.33
70407;BME280;57821;52.202;0.154;2023-04-04T11:12:44;102838.75;;;17.48;36.19
70407;BME280;57821;52.202;0.154;2023-04-04T11:21:21;102817.63;;;16.65;36.49
70407;BME280;57821;52.202;0.154;2023-04-04T11:24:14;102824.47;;;16.41;36.81
70407;BME280;57821;52.202;0.154;2023-04-04T11:27:01;102830.47;;;16.22;37.13
70407;BME280;57821;52.202;0.154;2023-04-04T11:29:49;102827.81;;;16.19;38.10
70407;BME280;57821;52.202;0.154;2023-04-04T11:32:42;102835.69;;;16.22;37.55
70407;BME280;57821;52.202;0.154;2023-04-04T11:35:52;102829.53;;;16.14;37.94
70407;BME280;57821;52.202;0.154;2023-04-04T11:38:47;102826.03;;;16.15;38.45
70407;BME280;57821;52.202;0.154;2023-04-04T11:42:00;102824.31;;;16.17;37.66
70407;BME280;57821;52.202;0.154;2023-04-04T11:47:35;102822.63;;;16.28;38.36
70407;BME280;57821;52.202;0.154;2023-04-04T11:50:22;102821.78;;;16.34;37.59
70407;BME280;57821;52.202;0.154;2023-04-04T11:53:09;102823.56;;;16.35;38.47
70407;BME280;57821;52.202;0.154;2023-04-04T11:55:57;102824.44;;;16.35;38.29
70407;BME280;57821;52.202;0.154;2023-04-04T11:58:46;102809.56;;;16.28;38.20
70407;BME280;57821;52.202;0.154;2023-04-04T12:01:33;102808.72;;;16.35;38.13
70407;BME280;57821;52.202;0.154;2023-04-04T12:04:20;102813.09;;;16.35;37.91
70407;BME280;57821;52.202;0.154;2023-04-04T12:07:08;102806.09;;;16.34;38.30
70407;BME280;57821;52.202;0.154;2023-04-04T12:09:55;102800.88;;;16.35;38.00
70407;BME280;57821;52.202;0.154;2023-04-04T12:12:46;102803.47;;;16.37;38.07
70407;BME280;57821;52.202;0.154;2023-04-04T12:15:34;102799.16;;;16.42;37.98
70407;BME280;57821;52.202;0.154;2023-04-04T12:18:21;102804.41;;;16.50;37.59
70407;BME280;57821;52.202;0.154;2023-04-04T12:21:09;102797.44;;;16.52;37.25
70407;BME280;57821;52.202;0.154;2023-04-04T12:23:56;102791.31;;;16.50;37.41
70407;BME280;57821;52.202;0.154;2023-04-04T12:26:45;102789.53;;;16.39;38.02
70407;BME280;57821;52.202;0.154;2023-04-04T12:29:33;102792.97;;;16.32;37.85
70407;BME280;57821;52.202;0.154;2023-04-04T12:32:21;102791.22;;;16.28;38.24
70407;BME280;57821;52.202;0.154;2023-04-04T12:35:09;102793.84;;;16.28;38.43
70407;BME280;57821;52.202;0.154;2023-04-04T12:37:57;102794.72;;;16.24;38.36
70407;BME280;57821;52.202;0.154;2023-04-04T12:40:45;102782.44;;;16.17;38.40
70407;BME280;57821;52.202;0.154;2023-04-04T12:43:32;102782.44;;;16.20;38.26
70407;BME280;57821;52.202;0.154;2023-04-04T12:46:25;102767.59;;;16.12;38.63
70407;BME280;57821;52.202;0.154;2023-04-04T12:49:12;102770.22;;;16.16;38.53
70407;BME280;57821;52.202;0.154;2023-04-04T12:51:59;102768.44;;;16.14;37.34
70407;BME280;57821;52.202;0.154;2023-04-04T12:54:47;102771.00;;;15.95;37.65
70407;BME280;57821;52.202;0.154;2023-04-04T12:57:43;102770.88;;;15.79;37.98
70407;BME280;57821;52.202;0.154;2023-04-04T13:00:30;102776.06;;;15.74;37.97
70407;BME280;57821;52.202;0.154;2023-04-04T13:03:26;102762.09;;;15.71;37.49
70407;BME280;57821;52.202;0.154;2023-04-04T13:06:17;102755.94;;;15.63;38.04
70407;BME280;57821;52.202;0.154;2023-04-04T13:09:04;102750.72;;;15.59;38.32
70407;BME280;57821;52.202;0.154;2023-04-04T13:11:55;102746.22;;;15.51;38.42
70407;BME280;57821;52.202;0.154;2023-04-04T13:17:46;102729.56;;;15.38;38.97
70407;BME280;57821;52.202;0.154;2023-04-04T13:20:33;102727.88;;;15.43;38.38
70407;BME280;57821;52.202;0.154;2023-04-04T13:23:20;102735.72;;;15.45;39.63
70407;BME280;57821;52.202;0.154;2023-04-04T13:26:09;102728.81;;;15.51;38.82
70407;BME280;57821;52.202;0.154;2023-04-04T13:28:56;102730.66;;;15.60;39.03
70407;BME280;57821;52.202;0.154;2023-04-04T13:31:42;102722.00;;;15.70;38.91
70407;BME280;57821;52.202;0.154;2023-04-04T13:34:29;102722.94;;;15.78;38.54
70407;BME280;57821;52.202;0.154;2023-04-04T13:37:16;102714.25;;;15.87;38.44
70407;BME280;57821;52.202;0.154;2023-04-04T13:40:03;102721.28;;;15.94;38.17
70407;BME280;57821;52.202;0.154;2023-04-04T13:42:50;102715.22;;;16.06;38.44
70407;BME280;57821;52.202;0.154;2023-04-04T13:45:37;102711.84;;;16.25;38.06
70407;BME280;57821;52.202;0.154;2023-04-04T13:48:25;102717.09;;;16.43;38.37
70407;BME280;57821;52.202;0.154;2023-04-04T13:51:11;102721.59;;;16.70;37.95
70407;BME280;57821;52.202;0.154;2023-04-04T13:53:58;102717.25;;;16.93;37.51
70407;BME280;57821;52.202;0.154;2023-04-04T13:56:45;102715.50;;;17.15;37.65
70407;BME280;57821;52.202;0.154;2023-04-04T13:59:32;102705.88;;;17.37;37.05
70407;BME280;57821;52.202;0.154;2023-04-04T14:02:19;102694.53;;;17.53;36.74
70407;BME280;57821;52.202;0.154;2023-04-04T14:05:06;102691.03;;;17.64;36.57
70407;BME280;57821;52.202;0.154;2023-04-04T14:07:53;102697.06;;;17.83;36.56
70407;BME280;57821;52.202;0.154;2023-04-04T14:10:40;102679.56;;;17.91;36.42
70407;BME280;57821;52.202;0.154;2023-04-04T14:13:26;102683.03;;;17.96;35.61
70407;BME280;57821;52.202;0.154;2023-04-04T14:16:13;102684.72;;;18.16;34.91
70407;BME280;57821;52.202;0.154;2023-04-04T14:19:00;102674.09;;;18.37;35.58
70407;BME280;57821;52.202;0.154;2023-04-04T14:21:48;102668.69;;;18.64;35.67
70407;BME280;57821;52.202;0.154;2023-04-04T14:24:35;102671.09;;;18.93;34.49
70407;BME280;57821;52.202;0.154;2023-04-04T14:27:21;102670.84;;;19.23;33.80
70407;BME280;57821;52.202;0.154;2023-04-04T14:30:09;102660.84;;;19.60;34.17
70407;BME280;57821;52.202;0.154;2023-04-04T14:32:56;102662.13;;;20.01;33.16
70407;BME280;57821;52.202;0.154;2023-04-04T14:35:42;102658.94;;;20.43;33.50
70407;BME280;57821;52.202;0.154;2023-04-04T14:38:29;102653.06;;;20.83;32.75
70407;BME280;57821;52.202;0.154;2023-04-04T14:41:16;102651.63;;;21.14;32.33
70407;BME280;57821;52.202;0.154;2023-04-04T14:44:03;102641.19;;;21.56;31.69
70407;BME280;57821;52.202;0.154;2023-04-04T14:46:51;102641.44;;;21.88;31.20
70407;BME280;57821;52.202;0.154;2023-04-04T14:49:38;102634.72;;;22.13;30.76
70407;BME280;57821;52.202;0.154;2023-04-04T14:52:24;102635.94;;;22.39;30.30
70407;BME280;57821;52.202;0.154;2023-04-04T14:55:11;102626.34;;;22.35;30.12
70407;BME280;57821;52.202;0.154;2023-04-04T14:57:58;102628.41;;;22.21;30.20
70407;BME280;57821;52.202;0.154;2023-04-04T15:00:48;102618.75;;;22.20;29.47
70407;BME280;57821;52.202;0.154;2023-04-04T15:03:35;102610.81;;;22.20;29.33
70407;BME280;57821;52.202;0.154;2023-04-04T15:06:22;102612.16;;;22.00;29.76